Current Weather

Gardermoen

Gardermoen, Norway (ENGM)

Report from: Monday, June 27, 2022 1:20 PM CEST
Current time: Monday, June 27, 2022 1:36 PM CEST

Nearby weather
Weather history
Weather forecast

Present weatherThunderstorms in the vicinity
Temperature19.0°C (66.2°F)
Dew point17.0°C (62.6°F)
Winds 6 kts (3.1 m/s, 6.9 mph) North (10°)
Visibility6.2 mi. (10 km)
Clouds Few clouds 1,700 ft. (518 m)
Few clouds with cumulonimbus 4,000 ft. (1,219 m)
Ceiling: Broken clouds 6,800 ft. (2,073 m)
Altimeter30.00 in.Hg (1016 mB)
Relative humidity88 %
Density altitude642 ft. (196 m)
Flight conditions Visual Meteorological Conditions
Raw dataENGM 271120Z 01006KT 9999 VCTS FEW017 FEW040CB BKN068 19/17 Q1016 TEMPO 4000 TSRA
An error has occurred. This application may no longer respond until reloaded. Reload 🗙